sensor_id;sensor_type;location;lat;lon;timestamp;temperature;humidity
75387;DHT22;63966;47.914;22.266;2023-06-26T00:02:46;16.81;83.46
75387;DHT22;63966;47.914;22.266;2023-06-26T00:05:50;16.84;83.49
75387;DHT22;63966;47.914;22.266;2023-06-26T00:08:55;16.84;83.96
75387;DHT22;63966;47.914;22.266;2023-06-26T00:11:58;16.81;83.96
75387;DHT22;63966;47.914;22.266;2023-06-26T00:15:02;16.76;84.15
75387;DHT22;63966;47.914;22.266;2023-06-26T00:18:06;16.77;84.24
75387;DHT22;63966;47.914;22.266;2023-06-26T00:21:09;16.77;84.22
75387;DHT22;63966;47.914;22.266;2023-06-26T00:24:13;16.70;84.32
75387;DHT22;63966;47.914;22.266;2023-06-26T00:27:17;16.63;84.75
75387;DHT22;63966;47.914;22.266;2023-06-26T00:30:20;16.59;85.10
75387;DHT22;63966;47.914;22.266;2023-06-26T00:33:23;16.56;85.12
75387;DHT22;63966;47.914;22.266;2023-06-26T00:36:27;16.60;84.91
75387;DHT22;63966;47.914;22.266;2023-06-26T00:39:30;16.56;85.10
75387;DHT22;63966;47.914;22.266;2023-06-26T00:42:34;16.51;85.36
75387;DHT22;63966;47.914;22.266;2023-06-26T00:45:37;16.45;85.46
75387;DHT22;63966;47.914;22.266;2023-06-26T00:48:47;16.48;85.38
75387;DHT22;63966;47.914;22.266;2023-06-26T00:51:51;16.44;85.59
75387;DHT22;63966;47.914;22.266;2023-06-26T00:54:55;16.42;85.62
75387;DHT22;63966;47.914;22.266;2023-06-26T00:57:58;16.32;85.87
75387;DHT22;63966;47.914;22.266;2023-06-26T01:01:04;16.56;84.79
75387;DHT22;63966;47.914;22.266;2023-06-26T01:04:12;16.35;85.55
75387;DHT22;63966;47.914;22.266;2023-06-26T01:07:22;16.28;85.84
75387;DHT22;63966;47.914;22.266;2023-06-26T01:10:26;16.28;86.15
75387;DHT22;63966;47.914;22.266;2023-06-26T01:13:31;16.24;86.36
75387;DHT22;63966;47.914;22.266;2023-06-26T01:16:35;16.28;86.46
75387;DHT22;63966;47.914;22.266;2023-06-26T01:19:41;16.21;86.88
75387;DHT22;63966;47.914;22.266;2023-06-26T01:23:12;16.14;87.15
75387;DHT22;63966;47.914;22.266;2023-06-26T01:26:20;16.11;87.35
75387;DHT22;63966;47.914;22.266;2023-06-26T01:29:25;16.17;86.99
75387;DHT22;63966;47.914;22.266;2023-06-26T01:32:30;16.15;87.13
75387;DHT22;63966;47.914;22.266;2023-06-26T01:35:34;16.17;87.09
75387;DHT22;63966;47.914;22.266;2023-06-26T01:38:41;16.14;87.90
75387;DHT22;63966;47.914;22.266;2023-06-26T01:41:44;16.15;87.75
75387;DHT22;63966;47.914;22.266;2023-06-26T01:44:48;16.21;87.95
75387;DHT22;63966;47.914;22.266;2023-06-26T01:47:53;16.21;87.87
75387;DHT22;63966;47.914;22.266;2023-06-26T01:51:00;16.28;88.11
75387;DHT22;63966;47.914;22.266;2023-06-26T01:54:07;16.29;88.14
75387;DHT22;63966;47.914;22.266;2023-06-26T01:57:13;16.36;87.38
75387;DHT22;63966;47.914;22.266;2023-06-26T02:00:20;16.45;87.24
75387;DHT22;63966;47.914;22.266;2023-06-26T02:03:24;16.53;87.58
75387;DHT22;63966;47.914;22.266;2023-06-26T02:06:28;16.55;87.57
75387;DHT22;63966;47.914;22.266;2023-06-26T02:09:31;16.62;87.31
75387;DHT22;63966;47.914;22.266;2023-06-26T02:12:36;16.69;86.19
75387;DHT22;63966;47.914;22.266;2023-06-26T02:15:40;16.80;85.60
75387;DHT22;63966;47.914;22.266;2023-06-26T02:18:44;16.87;85.01
75387;DHT22;63966;47.914;22.266;2023-06-26T02:21:48;16.91;84.92
75387;DHT22;63966;47.914;22.266;2023-06-26T02:24:52;16.91;85.01
75387;DHT22;63966;47.914;22.266;2023-06-26T02:27:55;16.96;84.80
75387;DHT22;63966;47.914;22.266;2023-06-26T02:30:59;16.99;84.85
75387;DHT22;63966;47.914;22.266;2023-06-26T02:34:03;17.04;84.65
75387;DHT22;63966;47.914;22.266;2023-06-26T02:37:08;17.07;84.60
75387;DHT22;63966;47.914;22.266;2023-06-26T02:40:11;17.11;84.48
75387;DHT22;63966;47.914;22.266;2023-06-26T02:43:16;17.17;84.21
75387;DHT22;63966;47.914;22.266;2023-06-26T02:46:20;17.23;83.72
75387;DHT22;63966;47.914;22.266;2023-06-26T02:49:24;17.27;83.82
75387;DHT22;63966;47.914;22.266;2023-06-26T02:52:27;17.31;83.81
75387;DHT22;63966;47.914;22.266;2023-06-26T02:55:34;17.32;84.03
75387;DHT22;63966;47.914;22.266;2023-06-26T02:58:37;17.42;83.29
75387;DHT22;63966;47.914;22.266;2023-06-26T03:01:41;17.53;83.18
75387;DHT22;63966;47.914;22.266;2023-06-26T03:04:44;17.61;82.73
75387;DHT22;63966;47.914;22.266;2023-06-26T03:07:50;17.62;82.65
75387;DHT22;63966;47.914;22.266;2023-06-26T03:10:53;17.56;83.26
75387;DHT22;63966;47.914;22.266;2023-06-26T03:13:56;17.59;83.52
75387;DHT22;63966;47.914;22.266;2023-06-26T03:17:00;17.66;82.87
75387;DHT22;63966;47.914;22.266;2023-06-26T03:20:09;17.73;82.65
75387;DHT22;63966;47.914;22.266;2023-06-26T03:23:33;17.79;82.14
75387;DHT22;63966;47.914;22.266;2023-06-26T03:26:36;17.89;81.75
75387;DHT22;63966;47.914;22.266;2023-06-26T03:29:40;17.93;81.63
75387;DHT22;63966;47.914;22.266;2023-06-26T03:32:44;17.93;83.15
75387;DHT22;63966;47.914;22.266;2023-06-26T03:35:47;17.90;82.96
75387;DHT22;63966;47.914;22.266;2023-06-26T03:38:51;17.97;82.20
75387;DHT22;63966;47.914;22.266;2023-06-26T03:42:00;17.99;82.16
75387;DHT22;63966;47.914;22.266;2023-06-26T03:45:04;17.99;82.67
75387;DHT22;63966;47.914;22.266;2023-06-26T03:48:09;18.07;82.94
75387;DHT22;63966;47.914;22.266;2023-06-26T03:51:13;18.16;82.67
75387;DHT22;63966;47.914;22.266;2023-06-26T03:54:17;18.27;83.54
75387;DHT22;63966;47.914;22.266;2023-06-26T03:57:21;18.43;82.20
75387;DHT22;63966;47.914;22.266;2023-06-26T04:00:24;18.59;82.07
75387;DHT22;63966;47.914;22.266;2023-06-26T04:03:27;18.78;81.13
75387;DHT22;63966;47.914;22.266;2023-06-26T04:06:31;18.89;80.81
75387;DHT22;63966;47.914;22.266;2023-06-26T04:09:37;19.06;80.07
75387;DHT22;63966;47.914;22.266;2023-06-26T04:12:42;19.09;79.16
75387;DHT22;63966;47.914;22.266;2023-06-26T04:15:45;19.23;78.78
75387;DHT22;63966;47.914;22.266;2023-06-26T04:18:49;19.36;78.90
75387;DHT22;63966;47.914;22.266;2023-06-26T04:21:52;19.57;78.01
75387;DHT22;63966;47.914;22.266;2023-06-26T04:24:56;19.78;77.26
75387;DHT22;63966;47.914;22.266;2023-06-26T04:27:59;19.96;77.43
75387;DHT22;63966;47.914;22.266;2023-06-26T04:31:03;20.09;76.01
75387;DHT22;63966;47.914;22.266;2023-06-26T04:34:06;20.18;75.53
75387;DHT22;63966;47.914;22.266;2023-06-26T04:37:10;20.23;75.42
75387;DHT22;63966;47.914;22.266;2023-06-26T04:40:13;20.40;74.87
75387;DHT22;63966;47.914;22.266;2023-06-26T04:43:17;20.49;74.78
75387;DHT22;63966;47.914;22.266;2023-06-26T04:46:20;20.74;74.33
75387;DHT22;63966;47.914;22.266;2023-06-26T04:49:24;20.78;73.17
75387;DHT22;63966;47.914;22.266;2023-06-26T04:52:27;21.21;72.50
75387;DHT22;63966;47.914;22.266;2023-06-26T04:55:30;21.62;72.09
75387;DHT22;63966;47.914;22.266;2023-06-26T04:58:34;21.89;69.72
75387;DHT22;63966;47.914;22.266;2023-06-26T05:01:37;22.44;67.60
75387;DHT22;63966;47.914;22.266;2023-06-26T05:04:42;22.77;65.82
75387;DHT22;63966;47.914;22.266;2023-06-26T05:07:46;22.70;65.91
75387;DHT22;63966;47.914;22.266;2023-06-26T05:10:49;22.63;66.51
75387;DHT22;63966;47.914;22.266;2023-06-26T05:13:53;22.70;65.35
75387;DHT22;63966;47.914;22.266;2023-06-26T05:16:56;22.82;64.99
75387;DHT22;63966;47.914;22.266;2023-06-26T05:19:59;23.21;64.16
75387;DHT22;63966;47.914;22.266;2023-06-26T05:23:04;24.03;61.76
75387;DHT22;63966;47.914;22.266;2023-06-26T05:26:08;24.53;60.75
75387;DHT22;63966;47.914;22.266;2023-06-26T05:29:11;25.40;58.67
75387;DHT22;63966;47.914;22.266;2023-06-26T05:32:17;26.98;56.33
75387;DHT22;63966;47.914;22.266;2023-06-26T05:35:23;27.72;52.56
75387;DHT22;63966;47.914;22.266;2023-06-26T05:38:28;28.87;49.36
75387;DHT22;63966;47.914;22.266;2023-06-26T05:41:31;29.43;48.54
75387;DHT22;63966;47.914;22.266;2023-06-26T05:44:35;28.68;48.46
75387;DHT22;63966;47.914;22.266;2023-06-26T05:47:38;28.75;49.55
75387;DHT22;63966;47.914;22.266;2023-06-26T05:50:43;29.47;47.07
75387;DHT22;63966;47.914;22.266;2023-06-26T05:53:46;30.66;45.63
75387;DHT22;63966;47.914;22.266;2023-06-26T05:56:56;31.37;42.62
75387;DHT22;63966;47.914;22.266;2023-06-26T05:59:59;31.21;42.03
75387;DHT22;63966;47.914;22.266;2023-06-26T06:03:03;31.12;43.50
75387;DHT22;63966;47.914;22.266;2023-06-26T06:06:07;30.60;44.47
75387;DHT22;63966;47.914;22.266;2023-06-26T06:09:10;29.05;48.69
75387;DHT22;63966;47.914;22.266;2023-06-26T06:12:13;29.67;47.05
75387;DHT22;63966;47.914;22.266;2023-06-26T06:15:17;31.19;42.74
75387;DHT22;63966;47.914;22.266;2023-06-26T06:18:20;31.49;43.67
75387;DHT22;63966;47.914;22.266;2023-06-26T06:21:23;31.42;42.34
75387;DHT22;63966;47.914;22.266;2023-06-26T06:24:27;29.91;43.49
75387;DHT22;63966;47.914;22.266;2023-06-26T06:27:30;31.18;43.23
75387;DHT22;63966;47.914;22.266;2023-06-26T06:30:34;31.93;39.90
75387;DHT22;63966;47.914;22.266;2023-06-26T06:33:47;31.96;39.01
75387;DHT22;63966;47.914;22.266;2023-06-26T06:36:51;31.38;40.99
75387;DHT22;63966;47.914;22.266;2023-06-26T06:39:54;31.98;38.40
75387;DHT22;63966;47.914;22.266;2023-06-26T06:42:58;32.32;38.51
75387;DHT22;63966;47.914;22.266;2023-06-26T06:46:01;32.78;38.65
75387;DHT22;63966;47.914;22.266;2023-06-26T06:49:05;32.38;39.02
75387;DHT22;63966;47.914;22.266;2023-06-26T06:52:08;32.59;41.85
75387;DHT22;63966;47.914;22.266;2023-06-26T06:55:12;32.34;40.57
75387;DHT22;63966;47.914;22.266;2023-06-26T06:58:16;32.23;40.26
75387;DHT22;63966;47.914;22.266;2023-06-26T07:01:22;33.05;37.97
75387;DHT22;63966;47.914;22.266;2023-06-26T07:04:26;33.06;37.93
75387;DHT22;63966;47.914;22.266;2023-06-26T07:07:32;33.42;37.72
75387;DHT22;63966;47.914;22.266;2023-06-26T07:10:35;33.54;37.30
75387;DHT22;63966;47.914;22.266;2023-06-26T07:13:39;33.70;38.13
75387;DHT22;63966;47.914;22.266;2023-06-26T07:16:43;33.61;38.70
75387;DHT22;63966;47.914;22.266;2023-06-26T07:19:46;34.09;36.86
75387;DHT22;63966;47.914;22.266;2023-06-26T07:22:50;34.48;35.78
75387;DHT22;63966;47.914;22.266;2023-06-26T07:25:54;34.26;37.13
75387;DHT22;63966;47.914;22.266;2023-06-26T07:28:57;33.64;36.69
75387;DHT22;63966;47.914;22.266;2023-06-26T07:32:01;33.97;38.16
75387;DHT22;63966;47.914;22.266;2023-06-26T07:35:05;33.06;37.19
75387;DHT22;63966;47.914;22.266;2023-06-26T07:38:11;33.74;35.65
75387;DHT22;63966;47.914;22.266;2023-06-26T07:41:14;34.19;36.95
75387;DHT22;63966;47.914;22.266;2023-06-26T07:44:18;34.35;35.98
75387;DHT22;63966;47.914;22.266;2023-06-26T07:47:21;34.56;36.43
75387;DHT22;63966;47.914;22.266;2023-06-26T07:50:25;34.42;35.62
75387;DHT22;63966;47.914;22.266;2023-06-26T07:53:29;34.36;36.85
75387;DHT22;63966;47.914;22.266;2023-06-26T07:56:51;34.25;38.10
75387;DHT22;63966;47.914;22.266;2023-06-26T07:59:56;34.46;34.45
75387;DHT22;63966;47.914;22.266;2023-06-26T08:02:59;34.86;33.82
75387;DHT22;63966;47.914;22.266;2023-06-26T08:06:03;35.01;33.69
75387;DHT22;63966;47.914;22.266;2023-06-26T08:09:09;34.12;35.04
75387;DHT22;63966;47.914;22.266;2023-06-26T08:12:13;33.75;34.97
75387;DHT22;63966;47.914;22.266;2023-06-26T08:15:16;34.76;34.05
75387;DHT22;63966;47.914;22.266;2023-06-26T08:18:21;35.30;34.49
75387;DHT22;63966;47.914;22.266;2023-06-26T08:21:24;35.85;32.80
75387;DHT22;63966;47.914;22.266;2023-06-26T08:24:27;35.79;31.48
75387;DHT22;63966;47.914;22.266;2023-06-26T08:27:31;34.36;34.23
75387;DHT22;63966;47.914;22.266;2023-06-26T08:30:35;34.29;33.16
75387;DHT22;63966;47.914;22.266;2023-06-26T08:33:38;34.80;32.90
75387;DHT22;63966;47.914;22.266;2023-06-26T08:36:42;35.35;32.11
75387;DHT22;63966;47.914;22.266;2023-06-26T08:39:45;34.42;34.79
75387;DHT22;63966;47.914;22.266;2023-06-26T08:42:49;34.93;35.10
75387;DHT22;63966;47.914;22.266;2023-06-26T08:45:56;34.82;35.35
75387;DHT22;63966;47.914;22.266;2023-06-26T08:49:14;32.47;37.45
75387;DHT22;63966;47.914;22.266;2023-06-26T08:52:23;32.24;38.74
75387;DHT22;63966;47.914;22.266;2023-06-26T08:55:28;32.10;37.65
75387;DHT22;63966;47.914;22.266;2023-06-26T08:58:32;30.60;40.61
75387;DHT22;63966;47.914;22.266;2023-06-26T09:01:36;29.25;41.63
75387;DHT22;63966;47.914;22.266;2023-06-26T09:04:40;28.13;44.37
75387;DHT22;63966;47.914;22.266;2023-06-26T09:07:44;28.44;44.51
75387;DHT22;63966;47.914;22.266;2023-06-26T09:10:48;28.95;44.19
75387;DHT22;63966;47.914;22.266;2023-06-26T09:13:52;29.10;43.13
75387;DHT22;63966;47.914;22.266;2023-06-26T09:16:56;28.92;44.04
75387;DHT22;63966;47.914;22.266;2023-06-26T09:19:59;28.79;43.86
75387;DHT22;63966;47.914;22.266;2023-06-26T09:23:03;29.05;44.69
75387;DHT22;63966;47.914;22.266;2023-06-26T09:26:07;28.87;42.00
75387;DHT22;63966;47.914;22.266;2023-06-26T09:29:10;29.17;42.54
75387;DHT22;63966;47.914;22.266;2023-06-26T09:32:14;29.50;44.08
75387;DHT22;63966;47.914;22.266;2023-06-26T09:35:17;29.77;43.67
75387;DHT22;63966;47.914;22.266;2023-06-26T09:38:21;29.60;42.47
75387;DHT22;63966;47.914;22.266;2023-06-26T09:41:24;28.81;39.48
75387;DHT22;63966;47.914;22.266;2023-06-26T09:44:28;28.61;43.97
75387;DHT22;63966;47.914;22.266;2023-06-26T09:47:35;28.61;40.98
75387;DHT22;63966;47.914;22.266;2023-06-26T09:50:42;28.61;42.60
75387;DHT22;63966;47.914;22.266;2023-06-26T09:54:06;28.85;42.55
75387;DHT22;63966;47.914;22.266;2023-06-26T09:57:11;29.19;41.11
75387;DHT22;63966;47.914;22.266;2023-06-26T10:00:14;29.23;42.31
75387;DHT22;63966;47.914;22.266;2023-06-26T10:03:18;29.19;39.56
75387;DHT22;63966;47.914;22.266;2023-06-26T10:06:28;28.47;40.73
75387;DHT22;63966;47.914;22.266;2023-06-26T10:09:42;28.67;42.40
75387;DHT22;63966;47.914;22.266;2023-06-26T10:12:49;28.88;40.01
75387;DHT22;63966;47.914;22.266;2023-06-26T10:15:54;28.74;39.79
75387;DHT22;63966;47.914;22.266;2023-06-26T10:19:02;28.79;38.86
75387;DHT22;63966;47.914;22.266;2023-06-26T10:22:08;28.83;40.88
75387;DHT22;63966;47.914;22.266;2023-06-26T10:25:18;27.81;45.58
75387;DHT22;63966;47.914;22.266;2023-06-26T10:28:26;28.00;43.35
75387;DHT22;63966;47.914;22.266;2023-06-26T10:31:31;28.75;41.92
75387;DHT22;63966;47.914;22.266;2023-06-26T10:34:36;28.47;41.08
75387;DHT22;63966;47.914;22.266;2023-06-26T10:37:46;28.61;41.79
75387;DHT22;63966;47.914;22.266;2023-06-26T10:40:49;27.73;45.09
75387;DHT22;63966;47.914;22.266;2023-06-26T10:47:06;28.20;41.31
75387;DHT22;63966;47.914;22.266;2023-06-26T10:50:25;28.88;41.66
75387;DHT22;63966;47.914;22.266;2023-06-26T10:53:29;28.95;43.15
75387;DHT22;63966;47.914;22.266;2023-06-26T10:56:49;28.43;41.99
75387;DHT22;63966;47.914;22.266;2023-06-26T11:00:13;28.24;40.55
75387;DHT22;63966;47.914;22.266;2023-06-26T11:03:23;28.54;40.69
75387;DHT22;63966;47.914;22.266;2023-06-26T11:06:28;28.03;40.95
75387;DHT22;63966;47.914;22.266;2023-06-26T11:09:31;27.89;41.79
75387;DHT22;63966;47.914;22.266;2023-06-26T11:12:42;28.31;42.67
75387;DHT22;63966;47.914;22.266;2023-06-26T11:15:47;28.72;42.23
75387;DHT22;63966;47.914;22.266;2023-06-26T11:18:51;28.83;42.10
75387;DHT22;63966;47.914;22.266;2023-06-26T11:21:59;28.18;43.47
75387;DHT22;63966;47.914;22.266;2023-06-26T11:25:04;27.85;45.02
75387;DHT22;63966;47.914;22.266;2023-06-26T11:28:10;28.10;43.71
75387;DHT22;63966;47.914;22.266;2023-06-26T11:31:31;28.18;43.92
75387;DHT22;63966;47.914;22.266;2023-06-26T11:34:35;28.39;43.64
75387;DHT22;63966;47.914;22.266;2023-06-26T11:37:40;28.40;41.77
75387;DHT22;63966;47.914;22.266;2023-06-26T11:40:44;28.25;41.82
75387;DHT22;63966;47.914;22.266;2023-06-26T11:44:09;28.25;43.00
75387;DHT22;63966;47.914;22.266;2023-06-26T11:47:20;28.18;41.96
75387;DHT22;63966;47.914;22.266;2023-06-26T11:50:24;28.12;44.20
75387;DHT22;63966;47.914;22.266;2023-06-26T11:53:27;27.93;43.36
75387;DHT22;63966;47.914;22.266;2023-06-26T11:56:31;27.78;41.45
75387;DHT22;63966;47.914;22.266;2023-06-26T11:59:38;27.73;41.15
75387;DHT22;63966;47.914;22.266;2023-06-26T12:02:44;27.92;42.09
75387;DHT22;63966;47.914;22.266;2023-06-26T12:05:47;27.73;45.22
75387;DHT22;63966;47.914;22.266;2023-06-26T12:08:51;27.34;45.93
75387;DHT22;63966;47.914;22.266;2023-06-26T12:11:55;26.87;45.67
75387;DHT22;63966;47.914;22.266;2023-06-26T12:14:59;26.77;45.30
75387;DHT22;63966;47.914;22.266;2023-06-26T12:18:10;27.23;46.60
75387;DHT22;63966;47.914;22.266;2023-06-26T12:24:46;27.81;48.82
75387;DHT22;63966;47.914;22.266;2023-06-26T12:27:50;28.03;45.25
75387;DHT22;63966;47.914;22.266;2023-06-26T12:31:15;28.06;48.20
75387;DHT22;63966;47.914;22.266;2023-06-26T12:34:20;28.14;41.28
75387;DHT22;63966;47.914;22.266;2023-06-26T12:37:24;28.10;42.98
75387;DHT22;63966;47.914;22.266;2023-06-26T12:40:27;27.58;43.16
75387;DHT22;63966;47.914;22.266;2023-06-26T12:43:30;27.61;43.11
75387;DHT22;63966;47.914;22.266;2023-06-26T12:46:38;27.78;42.84
75387;DHT22;63966;47.914;22.266;2023-06-26T12:49:50;27.92;43.38
75387;DHT22;63966;47.914;22.266;2023-06-26T12:52:53;27.79;42.33
75387;DHT22;63966;47.914;22.266;2023-06-26T12:55:57;27.96;44.68
75387;DHT22;63966;47.914;22.266;2023-06-26T12:59:00;28.21;44.00
75387;DHT22;63966;47.914;22.266;2023-06-26T13:02:04;28.25;42.83
75387;DHT22;63966;47.914;22.266;2023-06-26T13:05:08;27.83;42.51
75387;DHT22;63966;47.914;22.266;2023-06-26T13:08:11;27.73;43.41
75387;DHT22;63966;47.914;22.266;2023-06-26T13:11:15;27.76;43.11
75387;DHT22;63966;47.914;22.266;2023-06-26T13:14:20;27.69;42.39
75387;DHT22;63966;47.914;22.266;2023-06-26T13:17:23;27.75;41.95
75387;DHT22;63966;47.914;22.266;2023-06-26T13:20:27;27.70;43.57
75387;DHT22;63966;47.914;22.266;2023-06-26T13:23:31;27.54;45.41
75387;DHT22;63966;47.914;22.266;2023-06-26T13:26:34;27.48;44.51
75387;DHT22;63966;47.914;22.266;2023-06-26T13:29:40;27.39;44.76
75387;DHT22;63966;47.914;22.266;2023-06-26T13:32:44;27.42;43.51
75387;DHT22;63966;47.914;22.266;2023-06-26T13:35:47;27.58;43.82
75387;DHT22;63966;47.914;22.266;2023-06-26T13:38:50;27.67;44.82
75387;DHT22;63966;47.914;22.266;2023-06-26T13:41:59;27.76;45.00
75387;DHT22;63966;47.914;22.266;2023-06-26T13:45:04;27.79;45.08
75387;DHT22;63966;47.914;22.266;2023-06-26T13:48:08;27.73;44.45
75387;DHT22;63966;47.914;22.266;2023-06-26T13:51:11;27.66;43.45
75387;DHT22;63966;47.914;22.266;2023-06-26T13:54:14;27.65;44.53
75387;DHT22;63966;47.914;22.266;2023-06-26T13:57:18;27.62;46.42
75387;DHT22;63966;47.914;22.266;2023-06-26T14:00:25;27.75;44.26
75387;DHT22;63966;47.914;22.266;2023-06-26T14:03:28;27.83;46.79
75387;DHT22;63966;47.914;22.266;2023-06-26T14:06:32;27.66;43.53
75387;DHT22;63966;47.914;22.266;2023-06-26T14:09:35;27.56;44.89
75387;DHT22;63966;47.914;22.266;2023-06-26T14:12:39;27.75;43.54
75387;DHT22;63966;47.914;22.266;2023-06-26T14:15:43;27.62;43.78
75387;DHT22;63966;47.914;22.266;2023-06-26T14:18:46;27.33;42.21
75387;DHT22;63966;47.914;22.266;2023-06-26T14:21:50;27.27;44.13
75387;DHT22;63966;47.914;22.266;2023-06-26T14:24:54;27.31;45.97
75387;DHT22;63966;47.914;22.266;2023-06-26T14:27:58;27.31;44.09
75387;DHT22;63966;47.914;22.266;2023-06-26T14:31:01;27.37;44.05
75387;DHT22;63966;47.914;22.266;2023-06-26T14:34:05;27.42;42.44
75387;DHT22;63966;47.914;22.266;2023-06-26T14:37:08;27.38;43.20
75387;DHT22;63966;47.914;22.266;2023-06-26T14:40:12;27.23;43.37
75387;DHT22;63966;47.914;22.266;2023-06-26T14:43:16;27.24;43.40
75387;DHT22;63966;47.914;22.266;2023-06-26T14:46:20;27.17;42.60
75387;DHT22;63966;47.914;22.266;2023-06-26T14:49:24;27.14;44.51
75387;DHT22;63966;47.914;22.266;2023-06-26T14:52:28;27.15;43.77
75387;DHT22;63966;47.914;22.266;2023-06-26T14:55:31;27.11;44.43
75387;DHT22;63966;47.914;22.266;2023-06-26T14:58:34;27.10;43.25
75387;DHT22;63966;47.914;22.266;2023-06-26T15:01:38;27.07;42.36
75387;DHT22;63966;47.914;22.266;2023-06-26T15:04:41;27.06;42.57
75387;DHT22;63966;47.914;22.266;2023-06-26T15:07:45;27.06;42.37
75387;DHT22;63966;47.914;22.266;2023-06-26T15:10:48;27.14;42.79
75387;DHT22;63966;47.914;22.266;2023-06-26T15:13:52;27.10;42.67
75387;DHT22;63966;47.914;22.266;2023-06-26T15:16:55;27.17;42.84
75387;DHT22;63966;47.914;22.266;2023-06-26T15:19:59;26.97;42.77
75387;DHT22;63966;47.914;22.266;2023-06-26T15:23:05;27.06;43.33
75387;DHT22;63966;47.914;22.266;2023-06-26T15:26:10;26.93;42.31
75387;DHT22;63966;47.914;22.266;2023-06-26T15:29:13;26.83;42.83
75387;DHT22;63966;47.914;22.266;2023-06-26T15:32:18;26.79;42.29
75387;DHT22;63966;47.914;22.266;2023-06-26T15:35:23;26.75;42.01
75387;DHT22;63966;47.914;22.266;2023-06-26T15:38:26;26.77;42.57
75387;DHT22;63966;47.914;22.266;2023-06-26T15:41:29;26.64;42.83
75387;DHT22;63966;47.914;22.266;2023-06-26T15:44:33;26.64;44.33
75387;DHT22;63966;47.914;22.266;2023-06-26T15:47:36;26.62;43.11
75387;DHT22;63966;47.914;22.266;2023-06-26T15:50:40;26.55;43.42
75387;DHT22;63966;47.914;22.266;2023-06-26T15:53:43;26.57;44.26
75387;DHT22;63966;47.914;22.266;2023-06-26T15:56:47;26.56;45.87
75387;DHT22;63966;47.914;22.266;2023-06-26T15:59:50;26.56;44.43
75387;DHT22;63966;47.914;22.266;2023-06-26T16:02:53;26.53;44.36
75387;DHT22;63966;47.914;22.266;2023-06-26T16:05:57;26.53;45.10
75387;DHT22;63966;47.914;22.266;2023-06-26T16:09:00;26.42;45.99
75387;DHT22;63966;47.914;22.266;2023-06-26T16:12:04;26.43;46.09
75387;DHT22;63966;47.914;22.266;2023-06-26T16:15:07;26.36;46.10
75387;DHT22;63966;47.914;22.266;2023-06-26T16:18:11;26.31;45.97
75387;DHT22;63966;47.914;22.266;2023-06-26T16:21:14;26.35;46.62
75387;DHT22;63966;47.914;22.266;2023-06-26T16:24:19;26.29;46.37
75387;DHT22;63966;47.914;22.266;2023-06-26T16:27:22;26.24;46.66
75387;DHT22;63966;47.914;22.266;2023-06-26T16:30:26;26.21;46.31
75387;DHT22;63966;47.914;22.266;2023-06-26T16:33:29;26.15;47.87
75387;DHT22;63966;47.914;22.266;2023-06-26T16:36:33;26.17;48.98
75387;DHT22;63966;47.914;22.266;2023-06-26T16:39:36;26.12;48.77
75387;DHT22;63966;47.914;22.266;2023-06-26T16:42:40;26.02;48.33
75387;DHT22;63966;47.914;22.266;2023-06-26T16:45:43;25.88;49.33
75387;DHT22;63966;47.914;22.266;2023-06-26T16:48:46;25.83;51.05
75387;DHT22;63966;47.914;22.266;2023-06-26T16:51:50;25.83;50.65
75387;DHT22;63966;47.914;22.266;2023-06-26T16:54:56;25.71;51.64
75387;DHT22;63966;47.914;22.266;2023-06-26T16:57:59;25.64;52.91
75387;DHT22;63966;47.914;22.266;2023-06-26T17:01:03;25.53;53.34
75387;DHT22;63966;47.914;22.266;2023-06-26T17:04:06;25.46;54.09
75387;DHT22;63966;47.914;22.266;2023-06-26T17:07:09;25.42;55.04
75387;DHT22;63966;47.914;22.266;2023-06-26T17:10:13;25.33;54.91
75387;DHT22;63966;47.914;22.266;2023-06-26T17:13:16;25.18;55.92
75387;DHT22;63966;47.914;22.266;2023-06-26T17:16:20;25.09;56.48
75387;DHT22;63966;47.914;22.266;2023-06-26T17:19:23;25.06;56.21
75387;DHT22;63966;47.914;22.266;2023-06-26T17:22:27;24.95;57.78
75387;DHT22;63966;47.914;22.266;2023-06-26T17:25:30;24.85;57.54
75387;DHT22;63966;47.914;22.266;2023-06-26T17:28:34;24.78;58.11
75387;DHT22;63966;47.914;22.266;2023-06-26T17:31:37;24.67;58.71
75387;DHT22;63966;47.914;22.266;2023-06-26T17:34:43;24.59;58.34
75387;DHT22;63966;47.914;22.266;2023-06-26T17:37:47;24.44;58.70
75387;DHT22;63966;47.914;22.266;2023-06-26T17:40:50;24.36;58.63
75387;DHT22;63966;47.914;22.266;2023-06-26T17:43:54;24.27;58.62
75387;DHT22;63966;47.914;22.266;2023-06-26T17:46:57;24.19;58.77
75387;DHT22;63966;47.914;22.266;2023-06-26T17:50:03;24.09;58.29
75387;DHT22;63966;47.914;22.266;2023-06-26T17:53:07;24.01;58.59
75387;DHT22;63966;47.914;22.266;2023-06-26T17:56:11;23.92;59.15
75387;DHT22;63966;47.914;22.266;2023-06-26T17:59:14;23.71;60.49
75387;DHT22;63966;47.914;22.266;2023-06-26T18:02:18;23.54;60.67
75387;DHT22;63966;47.914;22.266;2023-06-26T18:05:21;23.41;60.77
75387;DHT22;63966;47.914;22.266;2023-06-26T18:08:27;23.21;62.59
75387;DHT22;63966;47.914;22.266;2023-06-26T18:11:35;22.96;63.37
75387;DHT22;63966;47.914;22.266;2023-06-26T18:14:38;22.72;64.33
75387;DHT22;63966;47.914;22.266;2023-06-26T18:17:42;22.58;64.65
75387;DHT22;63966;47.914;22.266;2023-06-26T18:20:46;22.48;65.39
75387;DHT22;63966;47.914;22.266;2023-06-26T18:23:49;22.28;65.76
75387;DHT22;63966;47.914;22.266;2023-06-26T18:26:53;22.20;67.21
75387;DHT22;63966;47.914;22.266;2023-06-26T18:29:57;22.05;68.19
75387;DHT22;63966;47.914;22.266;2023-06-26T18:33:00;21.94;68.94
75387;DHT22;63966;47.914;22.266;2023-06-26T18:36:04;21.84;70.05
75387;DHT22;63966;47.914;22.266;2023-06-26T18:39:07;21.69;70.49
75387;DHT22;63966;47.914;22.266;2023-06-26T18:42:11;21.56;72.03
75387;DHT22;63966;47.914;22.266;2023-06-26T18:45:14;21.43;72.30
75387;DHT22;63966;47.914;22.266;2023-06-26T18:48:18;21.32;74.17
75387;DHT22;63966;47.914;22.266;2023-06-26T18:51:21;21.15;74.32
75387;DHT22;63966;47.914;22.266;2023-06-26T18:54:24;21.05;74.81
75387;DHT22;63966;47.914;22.266;2023-06-26T18:57:28;20.95;74.91
75387;DHT22;63966;47.914;22.266;2023-06-26T19:00:31;20.84;75.31
75387;DHT22;63966;47.914;22.266;2023-06-26T19:03:35;20.73;75.95
75387;DHT22;63966;47.914;22.266;2023-06-26T19:06:38;20.63;76.34
75387;DHT22;63966;47.914;22.266;2023-06-26T19:09:42;20.59;77.85
75387;DHT22;63966;47.914;22.266;2023-06-26T19:12:46;20.43;77.08
75387;DHT22;63966;47.914;22.266;2023-06-26T19:15:52;20.37;77.95